createdAt,value
2022-08-19T00:03:05.183Z,26.77
2022-08-19T00:05:35.467Z,28.40
2022-08-19T00:08:06.843Z,25.23
2022-08-19T00:10:39.666Z,26.15
2022-08-19T00:13:10.561Z,24.35
2022-08-19T00:15:40.801Z,26.45
2022-08-19T00:18:11.075Z,25.83
2022-08-19T00:20:41.903Z,27.08
2022-08-19T00:23:12.028Z,24.02
2022-08-19T00:25:45.135Z,25.00
2022-08-19T00:28:18.994Z,25.65
2022-08-19T00:30:49.166Z,23.55
2022-08-19T00:33:20.709Z,26.15
2022-08-19T00:35:55.927Z,26.15
2022-08-19T00:38:35.020Z,23.67
2022-08-19T00:41:11.210Z,23.33
2022-08-19T00:43:42.249Z,25.05
2022-08-19T00:46:12.611Z,27.50
2022-08-19T00:48:43.178Z,27.67
2022-08-19T00:53:44.586Z,28.00
2022-08-19T00:56:18.344Z,25.05
2022-08-19T00:58:48.681Z,25.60
2022-08-19T01:01:19.100Z,26.65
2022-08-19T01:03:57.251Z,30.95
2022-08-19T01:06:31.910Z,26.17
2022-08-19T01:09:02.769Z,29.92
2022-08-19T01:11:40.577Z,27.40
2022-08-19T01:14:13.444Z,26.05
2022-08-19T01:16:44.746Z,23.75
2022-08-19T01:19:29.002Z,26.25
2022-08-19T01:22:13.097Z,27.58
2022-08-19T01:24:49.999Z,26.80
2022-08-19T01:27:23.598Z,25.20
2022-08-19T01:29:54.956Z,26.35
2022-08-19T01:32:32.506Z,24.67
2022-08-19T01:35:05.271Z,27.15
2022-08-19T01:37:47.451Z,25.35
2022-08-19T01:40:21.541Z,24.95
2022-08-19T01:42:52.534Z,25.70
2022-08-19T01:45:24.572Z,23.83
2022-08-19T01:48:02.377Z,23.00
2022-08-19T01:50:34.161Z,20.80
2022-08-19T01:53:07.945Z,22.60
2022-08-19T01:55:44.176Z,19.98
2022-08-19T01:58:24.809Z,19.17
2022-08-19T02:00:55.515Z,20.38
2022-08-19T02:03:26.222Z,24.40
2022-08-19T02:06:01.631Z,21.40
2022-08-19T02:08:32.355Z,19.58
2022-08-19T02:11:05.572Z,20.98
2022-08-19T02:13:37.991Z,23.00
2022-08-19T02:16:08.820Z,20.10
2022-08-19T02:18:38.941Z,22.70
2022-08-19T02:21:09.229Z,19.77
2022-08-19T02:23:39.818Z,20.98
2022-08-19T02:28:43.593Z,20.70
2022-08-19T02:31:16.020Z,20.35
2022-08-19T02:33:46.681Z,20.80
2022-08-19T02:36:20.550Z,19.85
2022-08-19T02:38:54.306Z,19.60
2022-08-19T02:41:31.990Z,21.30
2022-08-19T02:44:29.882Z,20.02
2022-08-19T02:46:56.527Z,21.25
2022-08-19T02:49:26.765Z,21.73
2022-08-19T02:51:56.999Z,21.15
2022-08-19T02:54:27.250Z,23.67
2022-08-19T02:57:00.010Z,24.10
2022-08-19T02:59:33.884Z,20.83
2022-08-19T03:02:04.216Z,23.00
2022-08-19T03:04:34.447Z,20.30
2022-08-19T03:07:10.523Z,22.42
2022-08-19T03:09:43.525Z,23.45
2022-08-19T03:12:16.987Z,20.75
2022-08-19T03:14:47.662Z,20.00
2022-08-19T03:17:18.152Z,17.88
2022-08-19T03:19:48.779Z,19.52
2022-08-19T03:22:18.992Z,20.48
2022-08-19T03:24:51.009Z,20.52
2022-08-19T03:27:23.792Z,18.95
2022-08-19T03:30:00.459Z,21.20
2022-08-19T03:32:32.922Z,21.60
2022-08-19T03:35:03.944Z,22.73
2022-08-19T03:37:34.667Z,21.98
2022-08-19T03:42:49.397Z,23.55
2022-08-19T03:45:20.622Z,23.90
2022-08-19T03:47:50.785Z,24.13
2022-08-19T03:50:21.174Z,24.65
2022-08-19T03:52:54.405Z,27.17
2022-08-19T03:55:24.711Z,25.77
2022-08-19T03:57:59.375Z,28.95
2022-08-19T04:00:29.633Z,26.65
2022-08-19T04:03:00.845Z,27.30
2022-08-19T04:05:32.328Z,31.85
2022-08-19T04:08:02.509Z,28.20
2022-08-19T04:10:32.768Z,35.90
2022-08-19T04:13:06.425Z,31.77
2022-08-19T04:15:40.616Z,33.92
2022-08-19T04:18:11.423Z,37.00
2022-08-19T04:20:50.846Z,39.65
2022-08-19T04:23:21.001Z,39.25
2022-08-19T04:25:51.432Z,40.17
2022-08-19T04:28:24.530Z,43.65
2022-08-19T04:30:56.959Z,40.53
2022-08-19T04:33:29.658Z,48.30
2022-08-19T04:35:59.933Z,42.97
2022-08-19T04:38:30.126Z,43.10
2022-08-19T04:41:12.739Z,45.72
2022-08-19T04:43:49.511Z,42.63
2022-08-19T04:46:39.341Z,48.38
2022-08-19T04:49:13.154Z,41.08
2022-08-19T04:51:46.841Z,60.28
2022-08-19T04:54:19.195Z,56.47
2022-08-19T04:57:09.688Z,45.45
2022-08-19T04:59:43.517Z,51.17
2022-08-19T05:02:13.901Z,57.13
2022-08-19T05:04:44.119Z,56.55
2022-08-19T05:07:14.651Z,50.25
2022-08-19T05:12:30.468Z,56.63
2022-08-19T05:15:03.854Z,61.55
2022-08-19T05:17:38.244Z,48.58
2022-08-19T05:20:23.984Z,47.05
2022-08-19T05:22:54.329Z,47.15
2022-08-19T05:25:26.877Z,43.35
2022-08-19T05:27:57.028Z,39.92
2022-08-19T05:30:42.383Z,39.42
2022-08-19T05:33:17.105Z,38.07
2022-08-19T05:35:49.409Z,40.50
2022-08-19T05:38:20.319Z,39.17
2022-08-19T05:40:50.624Z,38.50
2022-08-19T05:43:20.823Z,33.08
2022-08-19T05:45:53.790Z,34.10
2022-08-19T05:48:23.990Z,30.48
2022-08-19T05:50:54.223Z,32.58
2022-08-19T05:53:24.467Z,30.88
2022-08-19T05:55:54.609Z,30.65
2022-08-19T05:58:28.120Z,32.30
2022-08-19T06:01:05.370Z,28.70
2022-08-19T06:03:38.417Z,32.53
2022-08-19T06:06:10.065Z,26.67
2022-08-19T06:08:43.886Z,27.50
2022-08-19T06:11:21.916Z,33.58
2022-08-19T06:13:59.353Z,27.40
2022-08-19T06:16:35.023Z,31.13
2022-08-19T06:19:10.714Z,29.65
2022-08-19T06:21:44.555Z,28.45
2022-08-19T06:24:20.107Z,29.27
2022-08-19T06:26:56.685Z,26.75
2022-08-19T06:29:32.544Z,30.20
2022-08-19T06:32:07.607Z,28.27
2022-08-19T06:34:38.590Z,28.05
2022-08-19T06:37:08.835Z,26.00
2022-08-19T06:39:43.074Z,25.95
2022-08-19T06:42:17.926Z,27.15
2022-08-19T06:44:53.085Z,24.00
2022-08-19T06:47:28.869Z,27.50
2022-08-19T06:50:02.790Z,27.20
2022-08-19T06:52:34.323Z,27.42
2022-08-19T06:55:08.015Z,28.63
2022-08-19T06:57:38.504Z,23.20
2022-08-19T07:00:13.185Z,24.52
2022-08-19T07:02:52.446Z,20.75
2022-08-19T07:05:27.604Z,24.25
2022-08-19T07:08:01.608Z,22.65
2022-08-19T07:10:36.116Z,25.70
2022-08-19T07:13:07.014Z,19.48
2022-08-19T07:15:37.776Z,18.25
2022-08-19T07:18:12.707Z,19.17
2022-08-19T07:20:44.151Z,19.63
2022-08-19T07:23:16.160Z,17.15
2022-08-19T07:25:52.758Z,20.08
2022-08-19T07:28:24.932Z,18.23
2022-08-19T07:30:55.810Z,18.20
2022-08-19T07:35:59.606Z,21.42
2022-08-19T07:38:29.871Z,22.63
2022-08-19T07:41:00.023Z,24.38
2022-08-19T07:43:35.155Z,29.45
2022-08-19T07:46:05.829Z,29.60
2022-08-19T07:48:38.807Z,37.60
2022-08-19T07:51:11.943Z,43.15
2022-08-19T07:53:45.919Z,41.42
2022-08-19T07:56:17.800Z,42.60
2022-08-19T07:58:52.158Z,36.40
2022-08-19T08:01:27.593Z,41.58
2022-08-19T08:04:14.338Z,37.53
2022-08-19T08:06:57.291Z,34.08
2022-08-19T08:09:31.266Z,28.98
2022-08-19T08:12:32.995Z,30.83
2022-08-19T08:15:02.684Z,27.88
2022-08-19T08:17:49.600Z,25.73
2022-08-19T08:20:24.747Z,25.98
2022-08-19T08:23:07.350Z,22.83
2022-08-19T08:25:39.253Z,28.08
2022-08-19T08:28:11.322Z,22.50
2022-08-19T08:30:45.182Z,27.15
2022-08-19T08:36:10.620Z,23.52
2022-08-19T08:38:42.132Z,22.38
2022-08-19T08:41:23.168Z,25.73
2022-08-19T08:43:56.517Z,25.88
2022-08-19T08:46:39.211Z,29.60
2022-08-19T08:49:23.844Z,30.27
2022-08-19T08:52:03.798Z,28.98
2022-08-19T08:54:39.743Z,31.38
2022-08-19T08:57:18.369Z,34.25
2022-08-19T08:59:52.915Z,31.20
2022-08-19T09:02:23.433Z,29.63
2022-08-19T09:04:53.640Z,29.95
2022-08-19T09:07:48.329Z,29.33
2022-08-19T09:10:26.348Z,32.42
2022-08-19T09:13:09.727Z,32.38
2022-08-19T09:15:52.171Z,26.10
2022-08-19T09:18:22.418Z,31.88
2022-08-19T09:20:52.604Z,25.13
2022-08-19T09:23:26.999Z,28.40
2022-08-19T09:25:57.569Z,28.63
2022-08-19T09:28:28.726Z,28.80
2022-08-19T09:30:59.078Z,31.63
2022-08-19T09:33:30.125Z,27.63
2022-08-19T09:36:08.800Z,31.50
2022-08-19T09:38:43.436Z,29.35
2022-08-19T09:41:17.341Z,28.40
2022-08-19T09:43:53.160Z,27.95
2022-08-19T09:46:24.769Z,28.00
2022-08-19T09:48:57.911Z,28.40
2022-08-19T09:51:33.354Z,26.23
2022-08-19T09:54:11.259Z,25.10
2022-08-19T09:56:42.382Z,25.52
2022-08-19T09:59:13.236Z,25.88
2022-08-19T10:01:43.600Z,22.95
2022-08-19T10:04:19.677Z,26.73
2022-08-19T10:06:53.492Z,24.30
2022-08-19T10:09:34.488Z,29.13
2022-08-19T10:12:11.096Z,27.23
2022-08-19T10:14:41.787Z,30.85
2022-08-19T10:19:55.524Z,21.38
2022-08-19T10:22:27.200Z,21.58
2022-08-19T10:25:00.036Z,24.55
2022-08-19T10:27:32.148Z,22.67
2022-08-19T10:30:02.468Z,22.08
2022-08-19T10:35:06.992Z,25.25
2022-08-19T10:37:37.942Z,21.40
2022-08-19T10:40:22.959Z,23.63
2022-08-19T10:42:53.468Z,24.42
2022-08-19T10:47:58.345Z,28.67
2022-08-19T10:50:41.462Z,28.15
2022-08-19T10:53:12.562Z,30.52
2022-08-19T10:55:57.859Z,39.40
2022-08-19T10:58:28.053Z,48.90
2022-08-19T11:01:01.715Z,48.35
2022-08-19T11:03:32.178Z,49.95
2022-08-19T11:06:03.447Z,51.70
2022-08-19T11:08:34.543Z,44.40
2022-08-19T11:11:10.989Z,35.72
2022-08-19T11:13:45.578Z,34.60
2022-08-19T11:16:18.813Z,32.40
2022-08-19T11:18:51.476Z,33.45
2022-08-19T11:21:24.884Z,34.03
2022-08-19T11:23:58.848Z,35.63
2022-08-19T11:26:32.821Z,35.42
2022-08-19T11:29:03.809Z,35.92
2022-08-19T11:31:39.925Z,41.35
2022-08-19T11:34:14.356Z,39.53
2022-08-19T11:36:46.882Z,36.92
2022-08-19T11:39:21.136Z,41.03
2022-08-19T11:41:53.935Z,45.85
2022-08-19T11:44:24.247Z,51.75
2022-08-19T11:46:54.714Z,53.60
2022-08-19T11:51:55.348Z,48.93
2022-08-19T11:56:58.294Z,51.70
2022-08-19T11:59:28.432Z,49.38
2022-08-19T12:02:00.317Z,51.03
2022-08-19T12:07:00.410Z,47.00
2022-08-19T12:09:31.053Z,53.55
2022-08-19T12:12:03.944Z,47.65
2022-08-19T12:14:34.129Z,51.92
2022-08-19T12:17:05.983Z,49.42
2022-08-19T12:19:37.504Z,55.05
2022-08-19T12:22:08.727Z,51.13
2022-08-19T12:24:39.055Z,53.25
2022-08-19T12:27:12.830Z,47.85
2022-08-19T12:29:43.502Z,50.15
2022-08-19T12:32:13.705Z,54.63
2022-08-19T12:34:43.874Z,58.03
2022-08-19T12:37:14.770Z,55.53
2022-08-19T12:39:47.364Z,57.95
2022-08-19T12:42:20.535Z,58.67
2022-08-19T12:44:50.709Z,59.42
2022-08-19T12:47:21.540Z,66.78
2022-08-19T12:49:55.585Z,72.47
2022-08-19T12:52:28.454Z,70.53
2022-08-19T12:55:01.011Z,77.65
2022-08-19T12:57:34.234Z,67.85
2022-08-19T13:00:10.639Z,67.82
2022-08-19T13:02:42.543Z,69.57
2022-08-19T13:05:16.909Z,71.22
2022-08-19T13:07:47.575Z,64.13
